createdAt,value
2023-09-19T00:02:21.579Z,0.98
2023-09-19T00:04:49.728Z,0.30
2023-09-19T00:07:17.288Z,1.17
2023-09-19T00:09:45.273Z,1.25
2023-09-19T00:12:14.412Z,0.82
2023-09-19T00:14:41.150Z,0.98
2023-09-19T00:17:12.173Z,0.80
2023-09-19T00:19:38.892Z,0.50
2023-09-19T00:22:08.509Z,0.70
2023-09-19T00:24:35.404Z,1.15
2023-09-19T00:27:01.948Z,0.98
2023-09-19T00:29:30.223Z,1.02
2023-09-19T00:31:58.209Z,1.10
2023-09-19T00:34:24.835Z,0.73
2023-09-19T00:36:54.177Z,0.90
2023-09-19T00:39:21.403Z,0.57
2023-09-19T00:41:48.078Z,1.02
2023-09-19T00:44:14.722Z,1.00
2023-09-19T00:46:41.353Z,0.85
2023-09-19T00:49:13.055Z,0.98
2023-09-19T00:51:42.638Z,1.20
2023-09-19T00:54:10.089Z,0.85
2023-09-19T00:56:39.021Z,1.17
2023-09-19T00:59:05.480Z,0.50
2023-09-19T01:01:32.551Z,0.50
2023-09-19T01:03:59.523Z,0.47
2023-09-19T01:06:27.429Z,1.08
2023-09-19T01:08:56.769Z,0.55
2023-09-19T01:11:35.613Z,0.50
2023-09-19T01:14:14.307Z,1.02
2023-09-19T01:17:10.151Z,0.35
2023-09-19T01:20:12.304Z,0.50
2023-09-19T01:22:53.664Z,0.40
2023-09-19T01:26:01.935Z,1.10
2023-09-19T01:28:55.180Z,0.60
2023-09-19T01:31:27.077Z,0.45
2023-09-19T01:34:05.442Z,1.30
2023-09-19T01:36:37.145Z,1.00
2023-09-19T01:39:11.715Z,0.95
2023-09-19T01:41:48.133Z,1.30
2023-09-19T01:44:23.949Z,1.23
2023-09-19T01:46:50.556Z,0.40
2023-09-19T01:49:28.472Z,1.38
2023-09-19T01:52:13.225Z,1.15
2023-09-19T01:54:49.315Z,0.60
2023-09-19T01:57:18.700Z,0.50
2023-09-19T02:02:46.070Z,0.60
2023-09-19T02:05:13.649Z,0.63
2023-09-19T02:07:42.627Z,1.10
2023-09-19T02:12:39.192Z,1.15
2023-09-19T02:15:08.469Z,0.43
2023-09-19T02:17:35.040Z,0.85
2023-09-19T02:20:01.708Z,0.50
2023-09-19T02:22:28.989Z,0.90
2023-09-19T02:24:55.428Z,0.70
2023-09-19T02:27:24.547Z,1.20
2023-09-19T02:29:50.972Z,0.80
2023-09-19T02:32:19.413Z,0.80
2023-09-19T02:34:46.326Z,0.60
2023-09-19T02:37:17.255Z,0.47
2023-09-19T02:39:44.486Z,0.40
2023-09-19T02:42:13.680Z,0.68
2023-09-19T02:44:41.046Z,0.90
2023-09-19T02:47:07.762Z,0.80
2023-09-19T02:49:34.369Z,0.75
2023-09-19T02:52:01.005Z,0.60
2023-09-19T02:54:27.494Z,0.70
2023-09-19T02:56:55.269Z,0.75
2023-09-19T02:59:28.424Z,1.00
2023-09-19T03:01:55.424Z,1.30
2023-09-19T03:04:21.956Z,0.88
2023-09-19T03:06:52.168Z,1.08
2023-09-19T03:09:19.909Z,0.80
2023-09-19T03:11:47.886Z,0.70
2023-09-19T03:14:16.059Z,0.60
2023-09-19T03:16:43.331Z,0.52
2023-09-19T03:19:12.403Z,0.70
2023-09-19T03:24:09.311Z,1.25
2023-09-19T03:26:36.911Z,1.65
2023-09-19T03:29:10.980Z,1.48
2023-09-19T03:31:38.194Z,1.58
2023-09-19T03:34:05.235Z,1.40
2023-09-19T03:36:31.875Z,1.00
2023-09-19T03:38:58.723Z,1.25
2023-09-19T03:41:25.435Z,0.57
2023-09-19T03:43:52.123Z,1.10
2023-09-19T03:46:18.699Z,1.02
2023-09-19T03:48:45.263Z,0.98
2023-09-19T03:51:11.925Z,1.70
2023-09-19T03:53:38.640Z,1.63
2023-09-19T03:56:05.321Z,1.92
2023-09-19T03:58:31.773Z,1.95
2023-09-19T04:00:59.182Z,2.00
2023-09-19T04:03:35.524Z,2.03
2023-09-19T04:06:03.464Z,1.15
2023-09-19T04:08:30.671Z,1.50
2023-09-19T04:10:57.916Z,1.65
2023-09-19T04:13:24.420Z,2.15
2023-09-19T04:15:51.034Z,1.80
2023-09-19T04:18:21.764Z,1.70
2023-09-19T04:20:51.685Z,1.90
2023-09-19T04:23:18.429Z,0.85
2023-09-19T04:25:47.236Z,1.58
2023-09-19T04:28:13.776Z,1.10
2023-09-19T04:30:43.167Z,1.02
2023-09-19T04:33:15.462Z,1.23
2023-09-19T04:35:43.770Z,1.40
2023-09-19T04:38:10.220Z,1.67
2023-09-19T04:40:36.721Z,2.30
2023-09-19T04:43:04.042Z,1.67
2023-09-19T04:45:30.453Z,1.70
2023-09-19T04:47:57.334Z,1.48
2023-09-19T04:50:25.173Z,1.65
2023-09-19T04:52:52.080Z,2.03
2023-09-19T04:55:19.668Z,1.27
2023-09-19T04:57:48.370Z,1.23
2023-09-19T05:00:17.888Z,2.05
2023-09-19T05:02:44.779Z,1.75
2023-09-19T05:05:12.631Z,2.22
2023-09-19T05:07:43.332Z,1.77
2023-09-19T05:10:11.199Z,1.80
2023-09-19T05:12:37.763Z,1.70
2023-09-19T05:15:08.043Z,1.90
2023-09-19T05:17:35.569Z,1.65
2023-09-19T05:20:16.485Z,1.45
2023-09-19T05:22:47.329Z,2.05
2023-09-19T05:25:21.391Z,1.08
2023-09-19T05:27:50.050Z,1.05
2023-09-19T05:30:18.178Z,1.75
2023-09-19T05:32:45.027Z,1.17
2023-09-19T05:35:15.617Z,1.80
2023-09-19T05:37:42.177Z,1.33
2023-09-19T05:40:13.306Z,1.20
2023-09-19T05:42:43.470Z,2.05
2023-09-19T05:45:13.759Z,1.75
2023-09-19T05:47:46.291Z,1.00
2023-09-19T05:50:16.111Z,1.23
2023-09-19T05:52:44.078Z,1.95
2023-09-19T05:55:12.028Z,1.70
2023-09-19T05:57:43.642Z,1.63
2023-09-19T06:00:14.078Z,1.20
2023-09-19T06:02:41.447Z,1.10
2023-09-19T06:05:11.504Z,1.63
2023-09-19T06:07:38.554Z,1.10
2023-09-19T06:10:10.578Z,0.85
2023-09-19T06:12:45.960Z,1.00
2023-09-19T06:17:52.490Z,0.80
2023-09-19T06:20:20.790Z,1.30
2023-09-19T06:22:47.445Z,1.40
2023-09-19T06:25:21.430Z,2.25
2023-09-19T06:27:52.090Z,1.15
2023-09-19T06:30:18.809Z,0.95
2023-09-19T06:32:48.124Z,0.80
2023-09-19T06:35:19.495Z,1.40
2023-09-19T06:37:46.022Z,1.08
2023-09-19T06:40:15.586Z,1.42
2023-09-19T06:42:46.592Z,1.30
2023-09-19T06:45:21.186Z,1.50
2023-09-19T06:47:59.217Z,1.20
2023-09-19T06:50:29.413Z,0.95
2023-09-19T06:52:58.754Z,0.93
2023-09-19T06:55:29.093Z,0.80
2023-09-19T06:58:01.014Z,1.20
2023-09-19T07:00:40.457Z,1.10
2023-09-19T07:03:12.513Z,1.10
2023-09-19T07:05:41.482Z,0.95
2023-09-19T07:08:09.282Z,1.10
2023-09-19T07:10:40.605Z,1.15
2023-09-19T07:13:18.422Z,1.15
2023-09-19T07:15:48.151Z,2.03
2023-09-19T07:18:17.482Z,1.17
2023-09-19T07:20:50.687Z,1.63
2023-09-19T07:23:21.880Z,0.85
2023-09-19T07:25:49.750Z,1.00
2023-09-19T07:28:19.497Z,1.13
2023-09-19T07:30:46.108Z,1.60
2023-09-19T07:33:13.931Z,1.85
2023-09-19T07:35:44.780Z,1.40
2023-09-19T07:38:12.985Z,1.05
2023-09-19T07:40:39.808Z,1.30
2023-09-19T07:43:07.708Z,1.33
2023-09-19T07:45:34.702Z,1.20
2023-09-19T07:48:05.377Z,1.25
2023-09-19T07:50:32.854Z,0.80
2023-09-19T07:53:00.026Z,1.10
2023-09-19T07:55:27.087Z,1.67
2023-09-19T07:57:54.142Z,1.10
2023-09-19T08:00:20.868Z,1.05
2023-09-19T08:02:53.771Z,1.25
2023-09-19T08:05:25.370Z,1.02
2023-09-19T08:07:55.055Z,1.20
2023-09-19T08:10:22.131Z,1.50
2023-09-19T08:12:49.651Z,0.85
2023-09-19T08:15:17.999Z,1.30
2023-09-19T08:17:44.870Z,0.90
2023-09-19T08:20:18.485Z,1.40
2023-09-19T08:22:53.969Z,0.90
2023-09-19T08:25:20.990Z,1.17
2023-09-19T08:27:49.366Z,1.08
2023-09-19T08:30:25.312Z,1.00
2023-09-19T08:32:53.917Z,0.93
2023-09-19T08:35:20.737Z,1.05
2023-09-19T08:37:47.499Z,1.00
2023-09-19T08:40:14.055Z,1.05
2023-09-19T08:42:56.948Z,1.33
2023-09-19T08:45:30.325Z,1.20
2023-09-19T08:48:26.851Z,1.00
2023-09-19T08:51:00.461Z,1.85
2023-09-19T08:53:33.826Z,1.15
2023-09-19T08:56:03.008Z,1.23
2023-09-19T08:58:36.222Z,2.15
2023-09-19T09:01:03.377Z,1.52
2023-09-19T09:03:33.911Z,1.27
2023-09-19T09:06:00.906Z,1.20
2023-09-19T09:08:27.878Z,1.27
2023-09-19T09:10:54.895Z,2.00
2023-09-19T09:13:23.276Z,1.70
2023-09-19T09:15:49.704Z,1.90
2023-09-19T09:18:18.498Z,1.20
2023-09-19T09:20:46.028Z,1.50
2023-09-19T09:23:12.640Z,1.30
2023-09-19T09:25:56.491Z,1.60
2023-09-19T09:28:34.584Z,1.27
2023-09-19T09:31:09.281Z,1.13
2023-09-19T09:33:37.146Z,1.17
2023-09-19T09:36:07.205Z,1.10
2023-09-19T09:38:49.465Z,1.20
2023-09-19T09:41:28.274Z,1.02
2023-09-19T09:44:00.333Z,1.15
2023-09-19T09:46:26.837Z,0.95
2023-09-19T09:49:14.960Z,1.10
2023-09-19T09:54:16.039Z,1.20
2023-09-19T09:57:14.785Z,1.35
2023-09-19T09:59:56.536Z,1.15
2023-09-19T10:02:43.067Z,1.10
2023-09-19T10:05:27.947Z,1.23
2023-09-19T10:07:58.892Z,1.17
2023-09-19T10:10:54.632Z,1.45
2023-09-19T10:13:24.383Z,1.30
2023-09-19T10:15:54.542Z,0.93
2023-09-19T10:18:22.772Z,1.20
2023-09-19T10:20:53.386Z,0.77
2023-09-19T10:23:24.656Z,1.75
2023-09-19T10:25:53.273Z,1.20
2023-09-19T10:28:24.736Z,1.27
2023-09-19T10:30:55.125Z,1.02
2023-09-19T10:33:31.061Z,1.02
2023-09-19T10:36:00.683Z,0.80
2023-09-19T10:38:31.800Z,0.95
2023-09-19T10:41:02.275Z,0.75
2023-09-19T10:43:36.487Z,0.80
2023-09-19T10:46:08.949Z,0.70
2023-09-19T10:48:35.984Z,0.80
2023-09-19T10:51:10.999Z,0.73
2023-09-19T10:56:40.649Z,0.60
2023-09-19T10:59:15.552Z,0.70
2023-09-19T11:01:52.933Z,0.60
2023-09-19T11:04:31.023Z,0.70
2023-09-19T11:07:16.460Z,0.90
2023-09-19T11:09:58.972Z,0.60
2023-09-19T11:12:41.986Z,0.88
2023-09-19T11:15:11.926Z,0.50
2023-09-19T11:17:43.209Z,0.93
2023-09-19T11:20:12.852Z,0.50
2023-09-19T11:23:08.366Z,0.90
2023-09-19T11:25:48.270Z,0.68
2023-09-19T11:28:22.894Z,0.60
2023-09-19T11:30:51.035Z,0.90
2023-09-19T11:33:44.972Z,0.50
2023-09-19T11:36:16.819Z,0.77
2023-09-19T11:38:45.206Z,0.70
2023-09-19T11:41:27.258Z,0.60
2023-09-19T11:44:14.405Z,0.70
2023-09-19T11:46:55.568Z,0.80
2023-09-19T11:49:34.523Z,0.70
2023-09-19T11:52:09.026Z,0.98
2023-09-19T11:54:41.032Z,0.82
2023-09-19T11:57:13.078Z,0.70
2023-09-19T11:59:40.292Z,1.20
2023-09-19T12:02:10.218Z,0.60
2023-09-19T12:04:38.833Z,0.77
2023-09-19T12:07:16.385Z,0.73
2023-09-19T12:09:50.498Z,0.90
2023-09-19T12:12:24.685Z,0.60
2023-09-19T12:14:52.081Z,0.55
2023-09-19T12:17:25.699Z,0.70
2023-09-19T12:19:54.544Z,0.55
2023-09-19T12:24:52.092Z,0.82
2023-09-19T12:27:18.725Z,0.65
2023-09-19T12:29:50.222Z,0.40
2023-09-19T12:32:22.582Z,0.70
2023-09-19T12:34:53.893Z,0.40
2023-09-19T12:37:23.955Z,0.60
2023-09-19T12:39:55.931Z,0.75
2023-09-19T12:42:24.115Z,0.65
2023-09-19T12:44:57.630Z,0.80
2023-09-19T12:47:25.645Z,1.27
2023-09-19T12:50:18.992Z,1.00
2023-09-19T12:52:50.529Z,0.75
2023-09-19T12:55:33.929Z,1.38
2023-09-19T12:58:19.955Z,0.70
2023-09-19T13:00:52.629Z,0.52
2023-09-19T13:03:32.058Z,0.50
2023-09-19T13:06:02.095Z,0.60
2023-09-19T13:08:32.003Z,0.65
2023-09-19T13:11:05.066Z,0.47
2023-09-19T13:13:31.882Z,0.50
2023-09-19T13:15:58.899Z,0.70
2023-09-19T13:18:27.943Z,0.60
2023-09-19T13:21:12.913Z,0.70
2023-09-19T13:23:39.766Z,0.95
2023-09-19T13:26:07.024Z,0.50
2023-09-19T13:28:35.188Z,0.50
2023-09-19T13:31:02.707Z,0.63
2023-09-19T13:33:30.518Z,0.60
2023-09-19T13:35:58.000Z,0.90
2023-09-19T13:38:24.779Z,0.57
2023-09-19T13:40:53.688Z,0.70
2023-09-19T13:43:23.182Z,0.80
2023-09-19T13:45:50.449Z,0.55
2023-09-19T13:48:23.291Z,0.60
2023-09-19T13:50:52.580Z,0.60
2023-09-19T13:53:19.137Z,0.70
2023-09-19T13:55:45.919Z,0.80
2023-09-19T13:58:20.402Z,0.50
2023-09-19T14:00:47.082Z,0.70
2023-09-19T14:03:16.911Z,0.60
2023-09-19T14:05:43.634Z,0.77
2023-09-19T14:08:12.642Z,0.30
2023-09-19T14:10:41.330Z,0.80
2023-09-19T14:15:39.442Z,0.85
2023-09-19T14:18:14.774Z,1.05
2023-09-19T14:20:51.844Z,0.70
2023-09-19T14:23:18.608Z,0.65
2023-09-19T14:25:47.987Z,0.50
2023-09-19T14:28:21.073Z,0.68
2023-09-19T14:30:50.311Z,0.30
2023-09-19T14:33:17.114Z,0.60
2023-09-19T14:35:43.743Z,1.48
2023-09-19T14:38:10.667Z,1.13
2023-09-19T14:40:38.423Z,0.60
2023-09-19T14:43:08.957Z,0.40
2023-09-19T14:45:39.376Z,0.88
2023-09-19T14:48:14.982Z,1.35
2023-09-19T14:50:41.796Z,0.93
2023-09-19T14:53:11.836Z,0.82
2023-09-19T14:55:42.525Z,0.70
2023-09-19T14:58:12.914Z,0.45
2023-09-19T15:00:40.042Z,0.40
2023-09-19T15:03:07.222Z,0.43
2023-09-19T15:05:35.434Z,0.50
2023-09-19T15:08:05.386Z,0.55
2023-09-19T15:10:31.876Z,0.45
2023-09-19T15:12:58.720Z,0.63
2023-09-19T15:15:25.267Z,0.63
2023-09-19T15:17:52.474Z,0.80
2023-09-19T15:20:19.289Z,0.63
2023-09-19T15:22:47.383Z,0.47
2023-09-19T15:25:13.943Z,0.55
2023-09-19T15:27:42.602Z,0.57
2023-09-19T15:30:11.766Z,0.70
2023-09-19T15:32:38.592Z,0.50
2023-09-19T15:35:05.360Z,0.43
2023-09-19T15:37:34.198Z,0.75
2023-09-19T15:40:00.661Z,0.55
2023-09-19T15:42:32.573Z,0.60
2023-09-19T15:44:59.091Z,0.60
2023-09-19T15:47:25.617Z,0.63
2023-09-19T15:49:52.056Z,0.57
2023-09-19T15:52:20.818Z,0.43
2023-09-19T15:57:15.033Z,0.90
2023-09-19T15:59:41.503Z,0.50
2023-09-19T16:02:08.539Z,0.65
2023-09-19T16:04:35.623Z,0.60
2023-09-19T16:07:02.834Z,0.80
2023-09-19T16:09:29.349Z,0.60
2023-09-19T16:11:55.757Z,0.50
2023-09-19T16:14:22.254Z,0.75
2023-09-19T16:16:48.847Z,0.73
2023-09-19T16:19:15.356Z,0.90
2023-09-19T16:21:42.172Z,0.68
2023-09-19T16:24:10.621Z,0.70
2023-09-19T16:26:38.275Z,0.70
2023-09-19T16:29:05.027Z,0.80
2023-09-19T16:31:33.918Z,0.52
2023-09-19T16:34:00.860Z,0.50
2023-09-19T16:36:27.710Z,0.50
2023-09-19T16:38:54.483Z,0.52
2023-09-19T16:41:21.408Z,0.50
2023-09-19T16:43:50.781Z,0.45
2023-09-19T16:46:18.162Z,0.60
2023-09-19T16:49:02.110Z,0.73
2023-09-19T16:51:32.661Z,0.70
2023-09-19T16:53:59.844Z,0.50
2023-09-19T16:56:26.784Z,0.60
2023-09-19T16:58:58.865Z,0.80
2023-09-19T17:01:28.233Z,0.50
2023-09-19T17:03:54.859Z,0.65
2023-09-19T17:06:26.556Z,0.80
2023-09-19T17:08:53.254Z,0.70
2023-09-19T17:11:22.231Z,0.70
2023-09-19T17:13:54.199Z,1.20
2023-09-19T17:16:22.934Z,0.73
2023-09-19T17:18:54.509Z,0.60
2023-09-19T17:21:21.737Z,0.60
2023-09-19T17:23:52.640Z,0.55
2023-09-19T17:26:19.413Z,0.50
2023-09-19T17:28:47.585Z,0.50
2023-09-19T17:31:17.277Z,0.47
2023-09-19T17:33:51.259Z,0.85
2023-09-19T17:36:22.910Z,0.50
2023-09-19T17:38:50.853Z,0.60
2023-09-19T17:41:17.704Z,0.55
2023-09-19T17:43:48.692Z,0.75
2023-09-19T17:46:17.128Z,0.55
2023-09-19T17:48:51.134Z,0.60
2023-09-19T17:51:19.021Z,0.50
2023-09-19T17:53:46.792Z,0.90
2023-09-19T17:56:18.171Z,0.63
2023-09-19T17:58:47.310Z,0.43
2023-09-19T18:01:22.054Z,0.77
2023-09-19T18:03:50.614Z,0.60
2023-09-19T18:06:20.234Z,0.80
2023-09-19T18:08:46.787Z,0.60
2023-09-19T18:11:15.351Z,0.82
2023-09-19T18:13:49.422Z,0.60
2023-09-19T18:16:19.202Z,0.90
2023-09-19T18:18:50.938Z,0.73
2023-09-19T18:21:20.829Z,0.60
2023-09-19T18:23:54.515Z,0.65
2023-09-19T18:26:21.048Z,0.75
2023-09-19T18:28:47.633Z,0.63
2023-09-19T18:31:15.259Z,0.95
2023-09-19T18:33:41.666Z,0.70
2023-09-19T18:36:09.786Z,0.52
2023-09-19T18:38:43.061Z,0.90
2023-09-19T18:41:15.346Z,0.80
2023-09-19T18:43:42.168Z,1.10
2023-09-19T18:46:14.882Z,1.00
2023-09-19T18:48:53.404Z,0.40
2023-09-19T18:51:19.949Z,0.60
2023-09-19T18:53:53.310Z,0.90
2023-09-19T18:56:25.275Z,0.70
2023-09-19T18:58:52.106Z,1.00
2023-09-19T19:01:20.172Z,0.73
2023-09-19T19:03:53.747Z,0.70
2023-09-19T19:06:22.532Z,0.60
2023-09-19T19:08:49.212Z,0.85
2023-09-19T19:11:18.100Z,0.80
2023-09-19T19:13:47.648Z,0.82
2023-09-19T19:16:15.345Z,0.70
2023-09-19T19:18:47.131Z,0.70
2023-09-19T19:21:15.879Z,1.10
2023-09-19T19:23:42.854Z,0.82
2023-09-19T19:26:10.770Z,1.45
2023-09-19T19:28:40.856Z,0.85
2023-09-19T19:31:11.128Z,0.75
2023-09-19T19:33:39.205Z,0.80
2023-09-19T19:36:10.885Z,0.80
2023-09-19T19:38:39.704Z,1.42
2023-09-19T19:41:06.716Z,0.90
2023-09-19T19:43:33.972Z,1.00
2023-09-19T19:46:02.089Z,1.42
2023-09-19T19:48:30.300Z,1.27
2023-09-19T19:50:58.382Z,0.88
2023-09-19T19:53:27.810Z,0.75
2023-09-19T19:56:00.946Z,0.68
2023-09-19T19:58:29.794Z,0.73
2023-09-19T20:00:57.427Z,0.73
2023-09-19T20:03:25.658Z,0.88
2023-09-19T20:05:52.667Z,0.60
2023-09-19T20:08:19.683Z,1.00
2023-09-19T20:10:46.417Z,1.33
2023-09-19T20:13:14.847Z,0.70
2023-09-19T20:15:41.856Z,0.82
2023-09-19T20:18:14.664Z,0.80
2023-09-19T20:20:41.109Z,1.05
2023-09-19T20:23:07.847Z,0.70
2023-09-19T20:25:35.758Z,0.90
2023-09-19T20:28:02.457Z,1.30
2023-09-19T20:30:29.993Z,0.60
2023-09-19T20:32:56.584Z,0.80
2023-09-19T20:35:23.147Z,0.65
2023-09-19T20:37:51.272Z,1.10
2023-09-19T20:40:23.353Z,0.60
2023-09-19T20:42:50.406Z,0.70
2023-09-19T20:45:20.555Z,0.70
2023-09-19T20:47:48.375Z,0.98
2023-09-19T20:50:16.103Z,0.90
2023-09-19T20:52:42.767Z,0.90
2023-09-19T20:55:11.033Z,0.93
2023-09-19T20:57:37.952Z,0.63
2023-09-19T21:00:10.180Z,0.70
2023-09-19T21:02:39.943Z,0.70
2023-09-19T21:05:07.085Z,0.60
2023-09-19T21:07:33.518Z,0.60
2023-09-19T21:10:10.041Z,1.23
2023-09-19T21:12:37.031Z,0.63
2023-09-19T21:15:05.527Z,0.90
2023-09-19T21:17:32.295Z,0.70
2023-09-19T21:19:58.938Z,0.80
2023-09-19T21:22:27.418Z,0.70
2023-09-19T21:24:55.837Z,1.17
2023-09-19T21:27:22.590Z,0.60
2023-09-19T21:29:49.485Z,0.80
2023-09-19T21:32:15.866Z,0.50
2023-09-19T21:34:42.353Z,0.90
2023-09-19T21:37:09.989Z,0.73
2023-09-19T21:39:36.536Z,0.75
2023-09-19T21:42:04.712Z,0.82
2023-09-19T21:44:31.082Z,0.88
2023-09-19T21:46:59.113Z,0.73
2023-09-19T21:49:28.128Z,0.80
2023-09-19T21:51:54.890Z,0.90
2023-09-19T21:54:21.330Z,1.00
2023-09-19T21:56:49.438Z,0.80
2023-09-19T21:59:18.816Z,0.70
2023-09-19T22:01:45.692Z,0.93
2023-09-19T22:04:12.389Z,1.20
2023-09-19T22:06:39.342Z,0.95
2023-09-19T22:09:05.921Z,0.90
2023-09-19T22:11:32.381Z,0.95
2023-09-19T22:13:58.851Z,0.90
2023-09-19T22:16:26.543Z,1.48
2023-09-19T22:18:54.060Z,1.00
2023-09-19T22:21:28.082Z,1.58
2023-09-19T22:23:55.029Z,1.55
2023-09-19T22:26:23.553Z,1.73
2023-09-19T22:28:53.481Z,0.82
2023-09-19T22:31:27.494Z,0.88
2023-09-19T22:33:58.034Z,1.75
2023-09-19T22:36:33.596Z,0.73
2023-09-19T22:39:02.058Z,0.88
2023-09-19T22:41:29.118Z,0.85
2023-09-19T22:44:00.144Z,0.98
2023-09-19T22:46:29.522Z,1.73
2023-09-19T22:48:56.724Z,0.70
2023-09-19T22:51:24.120Z,1.58
2023-09-19T22:54:02.634Z,1.80
2023-09-19T22:56:31.874Z,0.98
2023-09-19T22:58:59.406Z,0.90
2023-09-19T23:01:28.555Z,1.48
2023-09-19T23:04:05.479Z,0.60
2023-09-19T23:06:34.579Z,1.55
2023-09-19T23:11:28.446Z,1.02
2023-09-19T23:13:55.905Z,0.88
2023-09-19T23:16:29.310Z,1.40
2023-09-19T23:18:57.917Z,0.80
2023-09-19T23:21:29.438Z,1.00
2023-09-19T23:23:56.917Z,0.80
2023-09-19T23:26:25.602Z,0.90
2023-09-19T23:28:52.814Z,0.95
2023-09-19T23:31:23.207Z,1.00
2023-09-19T23:33:51.584Z,1.13
2023-09-19T23:36:20.545Z,0.80
2023-09-19T23:38:48.183Z,0.90
2023-09-19T23:41:21.998Z,1.42
2023-09-19T23:43:51.843Z,0.90
2023-09-19T23:46:18.483Z,1.80
2023-09-19T23:48:45.022Z,1.58
2023-09-19T23:51:12.535Z,1.63
2023-09-19T23:53:39.936Z,0.90
2023-09-19T23:56:07.372Z,0.95
2023-09-19T23:58:36.180Z,0.98
